sensor_id;sensor_type;location;lat;lon;timestamp;pressure;altitude;pressure_sealevel;temperature;humidity
71299;BME280;59083;47.974;21.722;2023-06-19T00:00:43;100309.00;;;16.33;100.00
71299;BME280;59083;47.974;21.722;2023-06-19T00:03:45;100309.75;;;16.40;100.00
71299;BME280;59083;47.974;21.722;2023-06-19T00:06:46;100316.38;;;16.37;100.00
71299;BME280;59083;47.974;21.722;2023-06-19T00:09:47;100319.38;;;16.29;100.00
71299;BME280;59083;47.974;21.722;2023-06-19T00:12:48;100311.06;;;16.31;100.00
71299;BME280;59083;47.974;21.722;2023-06-19T00:15:50;100317.63;;;16.35;100.00
71299;BME280;59083;47.974;21.722;2023-06-19T00:18:51;100319.16;;;16.31;100.00
71299;BME280;59083;47.974;21.722;2023-06-19T00:21:56;100315.88;;;16.29;100.00
71299;BME280;59083;47.974;21.722;2023-06-19T00:24:58;100311.75;;;16.26;100.00
71299;BME280;59083;47.974;21.722;2023-06-19T00:27:59;100311.75;;;16.26;100.00
71299;BME280;59083;47.974;21.722;2023-06-19T00:31:00;100314.53;;;16.20;100.00
71299;BME280;59083;47.974;21.722;2023-06-19T00:34:02;100314.16;;;16.16;100.00
71299;BME280;59083;47.974;21.722;2023-06-19T00:37:04;100299.38;;;16.07;100.00
71299;BME280;59083;47.974;21.722;2023-06-19T00:40:07;100296.69;;;16.07;100.00
71299;BME280;59083;47.974;21.722;2023-06-19T00:43:11;100291.41;;;16.00;100.00
71299;BME280;59083;47.974;21.722;2023-06-19T00:46:12;100291.56;;;16.05;100.00
71299;BME280;59083;47.974;21.722;2023-06-19T00:49:14;100294.25;;;16.05;100.00
71299;BME280;59083;47.974;21.722;2023-06-19T00:52:16;100289.91;;;16.04;100.00
71299;BME280;59083;47.974;21.722;2023-06-19T00:55:18;100291.16;;;16.02;100.00
71299;BME280;59083;47.974;21.722;2023-06-19T00:58:21;100288.25;;;16.03;100.00
71299;BME280;59083;47.974;21.722;2023-06-19T01:01:22;100288.72;;;16.00;100.00
71299;BME280;59083;47.974;21.722;2023-06-19T01:04:24;100280.50;;;15.95;100.00
71299;BME280;59083;47.974;21.722;2023-06-19T01:07:43;100279.16;;;16.04;100.00
71299;BME280;59083;47.974;21.722;2023-06-19T01:10:53;100280.81;;;16.05;100.00
71299;BME280;59083;47.974;21.722;2023-06-19T01:13:59;100286.19;;;16.05;100.00
71299;BME280;59083;47.974;21.722;2023-06-19T01:17:02;100283.34;;;16.00;100.00
71299;BME280;59083;47.974;21.722;2023-06-19T01:20:04;100291.25;;;15.95;100.00
71299;BME280;59083;47.974;21.722;2023-06-19T01:23:12;100293.50;;;15.98;100.00
71299;BME280;59083;47.974;21.722;2023-06-19T01:26:15;100287.50;;;15.96;100.00
71299;BME280;59083;47.974;21.722;2023-06-19T01:29:17;100287.22;;;15.86;100.00
71299;BME280;59083;47.974;21.722;2023-06-19T01:35:39;100278.19;;;15.81;100.00
71299;BME280;59083;47.974;21.722;2023-06-19T01:38:43;100275.50;;;15.81;100.00
71299;BME280;59083;47.974;21.722;2023-06-19T01:41:45;100282.13;;;15.78;100.00
71299;BME280;59083;47.974;21.722;2023-06-19T01:44:47;100282.13;;;15.78;100.00
71299;BME280;59083;47.974;21.722;2023-06-19T01:47:49;100278.72;;;15.71;100.00
71299;BME280;59083;47.974;21.722;2023-06-19T01:50:50;100278.84;;;15.58;100.00
71299;BME280;59083;47.974;21.722;2023-06-19T01:53:52;100289.22;;;15.54;100.00
71299;BME280;59083;47.974;21.722;2023-06-19T01:56:53;100283.59;;;15.56;100.00
71299;BME280;59083;47.974;21.722;2023-06-19T01:59:54;100285.94;;;15.52;100.00
71299;BME280;59083;47.974;21.722;2023-06-19T02:02:56;100296.22;;;15.55;100.00
71299;BME280;59083;47.974;21.722;2023-06-19T02:05:58;100303.28;;;15.50;100.00
71299;BME280;59083;47.974;21.722;2023-06-19T02:09:01;100297.50;;;15.53;100.00
71299;BME280;59083;47.974;21.722;2023-06-19T02:12:03;100301.66;;;15.49;100.00
71299;BME280;59083;47.974;21.722;2023-06-19T02:15:04;100296.28;;;15.49;100.00
71299;BME280;59083;47.974;21.722;2023-06-19T02:18:06;100294.03;;;15.46;100.00
71299;BME280;59083;47.974;21.722;2023-06-19T02:21:07;100291.94;;;15.48;100.00
71299;BME280;59083;47.974;21.722;2023-06-19T02:24:09;100292.78;;;15.48;100.00
71299;BME280;59083;47.974;21.722;2023-06-19T02:27:10;100299.22;;;15.41;100.00
71299;BME280;59083;47.974;21.722;2023-06-19T02:30:11;100302.97;;;15.40;100.00
71299;BME280;59083;47.974;21.722;2023-06-19T02:33:13;100307.19;;;15.29;100.00
71299;BME280;59083;47.974;21.722;2023-06-19T02:36:14;100305.13;;;15.31;100.00
71299;BME280;59083;47.974;21.722;2023-06-19T02:39:20;100305.47;;;15.35;100.00
71299;BME280;59083;47.974;21.722;2023-06-19T02:42:23;100303.84;;;15.34;100.00
71299;BME280;59083;47.974;21.722;2023-06-19T02:45:24;100310.47;;;15.31;100.00
71299;BME280;59083;47.974;21.722;2023-06-19T02:48:25;100305.31;;;15.29;100.00
71299;BME280;59083;47.974;21.722;2023-06-19T02:51:28;100304.87;;;15.32;100.00
71299;BME280;59083;47.974;21.722;2023-06-19T02:54:29;100302.19;;;15.32;100.00
71299;BME280;59083;47.974;21.722;2023-06-19T02:57:30;100305.28;;;15.36;100.00
71299;BME280;59083;47.974;21.722;2023-06-19T03:00:31;100306.91;;;15.37;100.00
71299;BME280;59083;47.974;21.722;2023-06-19T03:03:33;100313.38;;;15.29;100.00
71299;BME280;59083;47.974;21.722;2023-06-19T03:06:38;100324.44;;;15.40;100.00
71299;BME280;59083;47.974;21.722;2023-06-19T03:09:40;100312.66;;;15.41;100.00
71299;BME280;59083;47.974;21.722;2023-06-19T03:12:43;100321.19;;;15.38;100.00
71299;BME280;59083;47.974;21.722;2023-06-19T03:15:44;100322.37;;;15.42;100.00
71299;BME280;59083;47.974;21.722;2023-06-19T03:18:46;100325.63;;;15.44;100.00
71299;BME280;59083;47.974;21.722;2023-06-19T03:21:47;100323.78;;;15.44;100.00
71299;BME280;59083;47.974;21.722;2023-06-19T03:24:49;100319.69;;;15.42;100.00
71299;BME280;59083;47.974;21.722;2023-06-19T03:27:51;100316.53;;;15.45;100.00
71299;BME280;59083;47.974;21.722;2023-06-19T03:30:52;100321.81;;;15.58;100.00
71299;BME280;59083;47.974;21.722;2023-06-19T03:33:54;100329.28;;;15.56;100.00
71299;BME280;59083;47.974;21.722;2023-06-19T03:36:55;100338.78;;;15.58;100.00
71299;BME280;59083;47.974;21.722;2023-06-19T03:39:57;100331.53;;;15.59;100.00
71299;BME280;59083;47.974;21.722;2023-06-19T03:42:58;100331.47;;;15.84;100.00
71299;BME280;59083;47.974;21.722;2023-06-19T03:45:59;100331.34;;;16.33;100.00
71299;BME280;59083;47.974;21.722;2023-06-19T03:49:00;100331.53;;;16.68;100.00
71299;BME280;59083;47.974;21.722;2023-06-19T03:52:03;100323.03;;;16.83;100.00
71299;BME280;59083;47.974;21.722;2023-06-19T03:55:04;100298.44;;;16.79;100.00
71299;BME280;59083;47.974;21.722;2023-06-19T03:58:06;100340.34;;;17.28;100.00
71299;BME280;59083;47.974;21.722;2023-06-19T04:01:07;100334.34;;;17.26;100.00
71299;BME280;59083;47.974;21.722;2023-06-19T04:04:08;100316.56;;;17.37;100.00
71299;BME280;59083;47.974;21.722;2023-06-19T04:07:09;100338.59;;;17.34;100.00
71299;BME280;59083;47.974;21.722;2023-06-19T04:10:15;100337.44;;;17.53;100.00
71299;BME280;59083;47.974;21.722;2023-06-19T04:13:16;100340.94;;;17.89;100.00
71299;BME280;59083;47.974;21.722;2023-06-19T04:16:19;100344.00;;;18.04;100.00
71299;BME280;59083;47.974;21.722;2023-06-19T04:19:20;100341.22;;;17.75;100.00
71299;BME280;59083;47.974;21.722;2023-06-19T04:22:21;100353.34;;;18.13;100.00
71299;BME280;59083;47.974;21.722;2023-06-19T04:25:22;100348.75;;;18.25;99.87
71299;BME280;59083;47.974;21.722;2023-06-19T04:28:24;100346.38;;;18.29;100.00
71299;BME280;59083;47.974;21.722;2023-06-19T04:31:26;100352.84;;;18.39;99.18
71299;BME280;59083;47.974;21.722;2023-06-19T04:34:31;100353.97;;;18.83;98.41
71299;BME280;59083;47.974;21.722;2023-06-19T04:37:32;100347.66;;;19.23;94.09
71299;BME280;59083;47.974;21.722;2023-06-19T04:40:33;100337.97;;;19.44;92.63
71299;BME280;59083;47.974;21.722;2023-06-19T04:43:34;100342.53;;;19.93;89.13
71299;BME280;59083;47.974;21.722;2023-06-19T04:46:36;100346.78;;;19.89;89.32
71299;BME280;59083;47.974;21.722;2023-06-19T04:49:38;100348.56;;;19.28;92.32
71299;BME280;59083;47.974;21.722;2023-06-19T04:52:39;100348.50;;;19.57;91.16
71299;BME280;59083;47.974;21.722;2023-06-19T04:55:40;100355.53;;;19.58;90.94
71299;BME280;59083;47.974;21.722;2023-06-19T04:58:42;100348.94;;;19.87;88.42
71299;BME280;59083;47.974;21.722;2023-06-19T05:01:47;100356.75;;;19.33;90.02
71299;BME280;59083;47.974;21.722;2023-06-19T05:04:49;100351.41;;;19.22;91.42
71299;BME280;59083;47.974;21.722;2023-06-19T05:07:50;100362.59;;;19.59;89.91
71299;BME280;59083;47.974;21.722;2023-06-19T05:10:51;100362.94;;;20.22;86.69
71299;BME280;59083;47.974;21.722;2023-06-19T05:13:54;100363.16;;;19.99;87.73
71299;BME280;59083;47.974;21.722;2023-06-19T05:16:55;100366.81;;;20.48;86.02
71299;BME280;59083;47.974;21.722;2023-06-19T05:19:56;100370.81;;;20.24;86.10
71299;BME280;59083;47.974;21.722;2023-06-19T05:22:58;100365.87;;;20.38;85.38
71299;BME280;59083;47.974;21.722;2023-06-19T05:25:59;100371.44;;;20.31;86.07
71299;BME280;59083;47.974;21.722;2023-06-19T05:29:00;100372.22;;;20.27;87.24
71299;BME280;59083;47.974;21.722;2023-06-19T05:32:01;100385.47;;;20.93;84.19
71299;BME280;59083;47.974;21.722;2023-06-19T05:35:03;100387.31;;;21.15;82.43
71299;BME280;59083;47.974;21.722;2023-06-19T05:38:04;100373.91;;;20.76;82.90
71299;BME280;59083;47.974;21.722;2023-06-19T05:41:06;100378.00;;;21.06;80.79
71299;BME280;59083;47.974;21.722;2023-06-19T05:44:07;100380.59;;;21.17;81.11
71299;BME280;59083;47.974;21.722;2023-06-19T05:47:09;100382.69;;;21.42;79.76
71299;BME280;59083;47.974;21.722;2023-06-19T05:50:10;100384.53;;;22.10;78.42
71299;BME280;59083;47.974;21.722;2023-06-19T05:53:11;100392.56;;;22.32;75.22
71299;BME280;59083;47.974;21.722;2023-06-19T05:56:12;100375.97;;;23.36;73.15
71299;BME280;59083;47.974;21.722;2023-06-19T05:59:13;100387.78;;;24.52;68.43
71299;BME280;59083;47.974;21.722;2023-06-19T06:02:16;100384.06;;;24.27;66.67
71299;BME280;59083;47.974;21.722;2023-06-19T06:05:18;100388.06;;;24.45;65.91
71299;BME280;59083;47.974;21.722;2023-06-19T06:08:21;100389.16;;;25.42;63.31
71299;BME280;59083;47.974;21.722;2023-06-19T06:11:22;100391.31;;;25.12;64.02
71299;BME280;59083;47.974;21.722;2023-06-19T06:14:24;100397.53;;;26.38;60.51
71299;BME280;59083;47.974;21.722;2023-06-19T06:17:25;100398.28;;;26.86;57.25
71299;BME280;59083;47.974;21.722;2023-06-19T06:20:26;100398.28;;;26.86;58.24
71299;BME280;59083;47.974;21.722;2023-06-19T06:23:28;100403.22;;;26.84;55.21
71299;BME280;59083;47.974;21.722;2023-06-19T06:26:29;100396.25;;;27.47;54.42
71299;BME280;59083;47.974;21.722;2023-06-19T06:29:30;100403.06;;;26.99;57.02
71299;BME280;59083;47.974;21.722;2023-06-19T06:32:31;100397.53;;;27.87;54.89
71299;BME280;59083;47.974;21.722;2023-06-19T06:35:32;100409.38;;;27.83;52.37
71299;BME280;59083;47.974;21.722;2023-06-19T06:38:35;100396.34;;;28.21;51.84
71299;BME280;59083;47.974;21.722;2023-06-19T06:41:36;100409.19;;;27.79;52.89
71299;BME280;59083;47.974;21.722;2023-06-19T06:44:39;100408.97;;;27.76;53.33
71299;BME280;59083;47.974;21.722;2023-06-19T06:47:40;100414.34;;;27.81;52.84
71299;BME280;59083;47.974;21.722;2023-06-19T06:50:41;100398.62;;;28.19;52.40
71299;BME280;59083;47.974;21.722;2023-06-19T06:53:43;100412.88;;;27.56;52.27
71299;BME280;59083;47.974;21.722;2023-06-19T06:56:44;100418.16;;;28.12;50.42
71299;BME280;59083;47.974;21.722;2023-06-19T06:59:48;100416.16;;;27.72;51.34
71299;BME280;59083;47.974;21.722;2023-06-19T07:02:50;100408.78;;;27.86;51.51
71299;BME280;59083;47.974;21.722;2023-06-19T07:05:52;100382.50;;;27.99;51.60
71299;BME280;59083;47.974;21.722;2023-06-19T07:08:53;100410.53;;;27.95;50.02
71299;BME280;59083;47.974;21.722;2023-06-19T07:11:54;100402.59;;;29.03;48.89
71299;BME280;59083;47.974;21.722;2023-06-19T07:14:56;100414.88;;;29.42;45.76
71299;BME280;59083;47.974;21.722;2023-06-19T07:17:57;100404.56;;;29.70;47.22
71299;BME280;59083;47.974;21.722;2023-06-19T07:20:58;100386.44;;;29.69;46.02
71299;BME280;59083;47.974;21.722;2023-06-19T07:24:00;100420.63;;;28.55;48.63
71299;BME280;59083;47.974;21.722;2023-06-19T07:27:01;100424.91;;;29.69;44.71
71299;BME280;59083;47.974;21.722;2023-06-19T07:30:02;100426.44;;;29.52;46.31
71299;BME280;59083;47.974;21.722;2023-06-19T07:33:03;100425.12;;;29.94;44.97
71299;BME280;59083;47.974;21.722;2023-06-19T07:36:05;100425.00;;;30.08;45.14
71299;BME280;59083;47.974;21.722;2023-06-19T07:39:06;100420.09;;;30.75;43.13
71299;BME280;59083;47.974;21.722;2023-06-19T07:42:07;100420.97;;;30.45;42.02
71299;BME280;59083;47.974;21.722;2023-06-19T07:45:09;100410.84;;;29.26;44.31
71299;BME280;59083;47.974;21.722;2023-06-19T07:48:10;100410.28;;;30.04;43.96
71299;BME280;59083;47.974;21.722;2023-06-19T07:51:11;100412.34;;;30.38;43.69
71299;BME280;59083;47.974;21.722;2023-06-19T07:54:13;100406.13;;;30.15;42.92
71299;BME280;59083;47.974;21.722;2023-06-19T07:57:14;100411.09;;;30.05;42.22
71299;BME280;59083;47.974;21.722;2023-06-19T08:00:15;100408.34;;;31.35;40.71
71299;BME280;59083;47.974;21.722;2023-06-19T08:03:17;100404.44;;;31.36;39.96
71299;BME280;59083;47.974;21.722;2023-06-19T08:06:18;100409.38;;;30.17;41.14
71299;BME280;59083;47.974;21.722;2023-06-19T08:09:19;100405.56;;;31.01;40.63
71299;BME280;59083;47.974;21.722;2023-06-19T08:12:20;100389.69;;;31.49;39.16
71299;BME280;59083;47.974;21.722;2023-06-19T08:15:21;100413.03;;;31.61;40.00
71299;BME280;59083;47.974;21.722;2023-06-19T08:18:22;100405.50;;;31.87;39.99
71299;BME280;59083;47.974;21.722;2023-06-19T08:21:24;100415.63;;;32.21;37.68
71299;BME280;59083;47.974;21.722;2023-06-19T08:24:25;100415.16;;;31.21;39.13
71299;BME280;59083;47.974;21.722;2023-06-19T08:27:26;100423.41;;;31.38;37.88
71299;BME280;59083;47.974;21.722;2023-06-19T08:30:27;100417.41;;;31.18;38.13
71299;BME280;59083;47.974;21.722;2023-06-19T08:33:29;100421.44;;;31.73;37.64
71299;BME280;59083;47.974;21.722;2023-06-19T08:36:30;100410.59;;;31.42;36.58
71299;BME280;59083;47.974;21.722;2023-06-19T08:39:32;100407.81;;;31.68;36.57
71299;BME280;59083;47.974;21.722;2023-06-19T08:42:33;100408.81;;;31.37;38.32
71299;BME280;59083;47.974;21.722;2023-06-19T08:45:34;100411.06;;;31.52;37.58
71299;BME280;59083;47.974;21.722;2023-06-19T08:48:35;100404.19;;;30.55;39.96
71299;BME280;59083;47.974;21.722;2023-06-19T08:51:37;100408.81;;;31.54;38.61
71299;BME280;59083;47.974;21.722;2023-06-19T08:54:39;100390.50;;;30.42;37.68
71299;BME280;59083;47.974;21.722;2023-06-19T08:57:44;100396.19;;;30.45;38.78
71299;BME280;59083;47.974;21.722;2023-06-19T09:00:49;100391.69;;;30.10;39.17
71299;BME280;59083;47.974;21.722;2023-06-19T09:03:50;100397.16;;;31.23;38.25
71299;BME280;59083;47.974;21.722;2023-06-19T09:07:00;100399.56;;;31.42;35.06
71299;BME280;59083;47.974;21.722;2023-06-19T09:10:15;100399.16;;;31.95;35.14
71299;BME280;59083;47.974;21.722;2023-06-19T09:13:16;100394.19;;;30.76;37.03
71299;BME280;59083;47.974;21.722;2023-06-19T09:16:18;100398.94;;;31.10;35.90
71299;BME280;59083;47.974;21.722;2023-06-19T09:19:22;100403.47;;;30.41;35.84
71299;BME280;59083;47.974;21.722;2023-06-19T09:22:23;100397.78;;;30.86;36.24
71299;BME280;59083;47.974;21.722;2023-06-19T09:25:26;100400.41;;;31.25;36.47
71299;BME280;59083;47.974;21.722;2023-06-19T09:28:28;100411.66;;;30.63;37.67
71299;BME280;59083;47.974;21.722;2023-06-19T09:31:32;100418.41;;;29.20;39.05
71299;BME280;59083;47.974;21.722;2023-06-19T09:34:34;100408.47;;;30.00;38.77
71299;BME280;59083;47.974;21.722;2023-06-19T09:37:38;100408.75;;;29.45;38.14
71299;BME280;59083;47.974;21.722;2023-06-19T09:40:40;100397.28;;;29.65;38.26
71299;BME280;59083;47.974;21.722;2023-06-19T09:43:44;100414.81;;;28.97;36.84
71299;BME280;59083;47.974;21.722;2023-06-19T09:46:49;100408.09;;;29.03;37.88
71299;BME280;59083;47.974;21.722;2023-06-19T09:49:54;100373.38;;;28.85;38.15
71299;BME280;59083;47.974;21.722;2023-06-19T09:52:56;100399.69;;;28.86;38.57
71299;BME280;59083;47.974;21.722;2023-06-19T09:55:57;100397.06;;;28.81;38.41
71299;BME280;59083;47.974;21.722;2023-06-19T09:58:59;100400.44;;;29.00;37.24
71299;BME280;59083;47.974;21.722;2023-06-19T10:02:01;100396.78;;;29.41;36.91
71299;BME280;59083;47.974;21.722;2023-06-19T10:05:06;100389.00;;;28.71;37.23
71299;BME280;59083;47.974;21.722;2023-06-19T10:08:14;100371.53;;;28.67;38.18
71299;BME280;59083;47.974;21.722;2023-06-19T10:11:26;100388.25;;;29.06;38.18
71299;BME280;59083;47.974;21.722;2023-06-19T10:14:28;100386.00;;;29.31;38.16
71299;BME280;59083;47.974;21.722;2023-06-19T10:17:32;100387.59;;;28.87;38.22
71299;BME280;59083;47.974;21.722;2023-06-19T10:20:35;100380.41;;;28.64;39.24
71299;BME280;59083;47.974;21.722;2023-06-19T10:23:39;100379.47;;;28.82;37.80
71299;BME280;59083;47.974;21.722;2023-06-19T10:26:41;100373.16;;;28.68;38.06
71299;BME280;59083;47.974;21.722;2023-06-19T10:29:42;100363.00;;;28.82;38.30
71299;BME280;59083;47.974;21.722;2023-06-19T10:32:43;100358.19;;;29.24;37.57
71299;BME280;59083;47.974;21.722;2023-06-19T10:35:45;100370.22;;;29.14;37.82
71299;BME280;59083;47.974;21.722;2023-06-19T10:38:47;100365.19;;;29.52;37.01
71299;BME280;59083;47.974;21.722;2023-06-19T10:41:48;100365.53;;;28.92;37.36
71299;BME280;59083;47.974;21.722;2023-06-19T10:44:50;100370.78;;;29.25;39.25
71299;BME280;59083;47.974;21.722;2023-06-19T10:47:51;100368.53;;;29.27;38.46
71299;BME280;59083;47.974;21.722;2023-06-19T10:50:52;100361.38;;;29.39;38.83
71299;BME280;59083;47.974;21.722;2023-06-19T10:53:55;100356.94;;;28.58;37.81
71299;BME280;59083;47.974;21.722;2023-06-19T10:56:56;100356.13;;;28.44;38.25
71299;BME280;59083;47.974;21.722;2023-06-19T10:59:58;100345.34;;;29.10;38.97
71299;BME280;59083;47.974;21.722;2023-06-19T11:02:59;100337.31;;;29.00;39.78
71299;BME280;59083;47.974;21.722;2023-06-19T11:06:01;100343.41;;;28.75;38.49
71299;BME280;59083;47.974;21.722;2023-06-19T11:09:03;100342.19;;;27.72;40.28
71299;BME280;59083;47.974;21.722;2023-06-19T11:12:06;100346.78;;;28.04;39.88
71299;BME280;59083;47.974;21.722;2023-06-19T11:15:09;100357.09;;;27.66;40.31
71299;BME280;59083;47.974;21.722;2023-06-19T11:18:11;100349.22;;;27.91;40.73
71299;BME280;59083;47.974;21.722;2023-06-19T11:21:12;100346.38;;;28.10;40.29
71299;BME280;59083;47.974;21.722;2023-06-19T11:24:14;100349.81;;;27.75;40.01
71299;BME280;59083;47.974;21.722;2023-06-19T11:27:21;100346.72;;;27.63;40.61
71299;BME280;59083;47.974;21.722;2023-06-19T11:30:32;100344.16;;;27.20;40.53
71299;BME280;59083;47.974;21.722;2023-06-19T11:33:34;100343.28;;;26.68;41.12
71299;BME280;59083;47.974;21.722;2023-06-19T11:36:42;100336.41;;;26.90;41.84
71299;BME280;59083;47.974;21.722;2023-06-19T11:39:45;100333.81;;;26.80;42.30
71299;BME280;59083;47.974;21.722;2023-06-19T11:42:47;100329.69;;;27.01;42.06
71299;BME280;59083;47.974;21.722;2023-06-19T11:45:49;100325.06;;;27.47;41.63
71299;BME280;59083;47.974;21.722;2023-06-19T11:48:50;100320.09;;;27.82;41.18
71299;BME280;59083;47.974;21.722;2023-06-19T11:51:51;100319.63;;;27.15;40.86
71299;BME280;59083;47.974;21.722;2023-06-19T11:54:54;100313.38;;;27.74;40.35
71299;BME280;59083;47.974;21.722;2023-06-19T11:57:56;100312.00;;;27.44;39.97
71299;BME280;59083;47.974;21.722;2023-06-19T12:00:57;100310.66;;;27.28;42.32
71299;BME280;59083;47.974;21.722;2023-06-19T12:03:59;100311.13;;;27.30;40.96
71299;BME280;59083;47.974;21.722;2023-06-19T12:07:01;100312.88;;;27.07;41.37
71299;BME280;59083;47.974;21.722;2023-06-19T12:10:03;100308.53;;;27.06;42.03
71299;BME280;59083;47.974;21.722;2023-06-19T12:13:05;100302.66;;;27.13;42.26
71299;BME280;59083;47.974;21.722;2023-06-19T12:16:07;100314.03;;;26.88;41.91
71299;BME280;59083;47.974;21.722;2023-06-19T12:19:09;100306.66;;;26.83;42.55
71299;BME280;59083;47.974;21.722;2023-06-19T12:22:10;100314.53;;;26.90;42.49
71299;BME280;59083;47.974;21.722;2023-06-19T12:25:11;100317.16;;;27.13;41.73
71299;BME280;59083;47.974;21.722;2023-06-19T12:28:12;100308.53;;;27.06;41.24
71299;BME280;59083;47.974;21.722;2023-06-19T12:31:19;100303.12;;;27.01;41.70
71299;BME280;59083;47.974;21.722;2023-06-19T12:34:20;100293.88;;;26.79;41.42
71299;BME280;59083;47.974;21.722;2023-06-19T12:37:21;100297.84;;;26.91;41.68
71299;BME280;59083;47.974;21.722;2023-06-19T12:40:23;100298.66;;;26.92;42.13
71299;BME280;59083;47.974;21.722;2023-06-19T12:43:24;100289.47;;;26.83;42.07
71299;BME280;59083;47.974;21.722;2023-06-19T12:46:25;100284.63;;;27.12;42.23
71299;BME280;59083;47.974;21.722;2023-06-19T12:49:26;100277.47;;;27.16;41.66
71299;BME280;59083;47.974;21.722;2023-06-19T12:52:27;100275.88;;;27.42;41.97
71299;BME280;59083;47.974;21.722;2023-06-19T12:55:28;100277.97;;;27.64;41.71
71299;BME280;59083;47.974;21.722;2023-06-19T12:58:30;100271.56;;;27.69;41.36
71299;BME280;59083;47.974;21.722;2023-06-19T13:01:31;100276.06;;;27.00;41.35
71299;BME280;59083;47.974;21.722;2023-06-19T13:04:32;100273.44;;;26.76;41.69
71299;BME280;59083;47.974;21.722;2023-06-19T13:07:33;100274.97;;;27.01;41.15
71299;BME280;59083;47.974;21.722;2023-06-19T13:10:35;100264.34;;;27.13;41.37
71299;BME280;59083;47.974;21.722;2023-06-19T13:13:36;100257.41;;;27.34;41.08
71299;BME280;59083;47.974;21.722;2023-06-19T13:16:37;100257.81;;;27.74;40.97
71299;BME280;59083;47.974;21.722;2023-06-19T13:19:38;100259.72;;;27.73;40.14
71299;BME280;59083;47.974;21.722;2023-06-19T13:22:39;100265.09;;;27.65;41.11
71299;BME280;59083;47.974;21.722;2023-06-19T13:25:40;100269.44;;;27.52;41.49
71299;BME280;59083;47.974;21.722;2023-06-19T13:28:42;100271.63;;;27.36;40.87
71299;BME280;59083;47.974;21.722;2023-06-19T13:31:43;100264.50;;;27.35;40.51
71299;BME280;59083;47.974;21.722;2023-06-19T13:34:44;100258.94;;;27.40;40.92
71299;BME280;59083;47.974;21.722;2023-06-19T13:37:45;100257.50;;;27.62;41.59
71299;BME280;59083;47.974;21.722;2023-06-19T13:40:47;100264.88;;;27.75;41.12
71299;BME280;59083;47.974;21.722;2023-06-19T13:43:48;100252.41;;;27.69;41.44
71299;BME280;59083;47.974;21.722;2023-06-19T13:46:49;100247.88;;;27.45;40.68
71299;BME280;59083;47.974;21.722;2023-06-19T13:49:51;100252.72;;;27.53;41.91
71299;BME280;59083;47.974;21.722;2023-06-19T13:52:52;100243.44;;;27.49;41.36
71299;BME280;59083;47.974;21.722;2023-06-19T13:55:55;100247.94;;;27.59;41.17
71299;BME280;59083;47.974;21.722;2023-06-19T13:58:59;100255.44;;;27.53;41.69
71299;BME280;59083;47.974;21.722;2023-06-19T14:02:00;100258.44;;;27.38;40.98
71299;BME280;59083;47.974;21.722;2023-06-19T14:05:02;100247.34;;;27.16;40.82
71299;BME280;59083;47.974;21.722;2023-06-19T14:08:04;100239.53;;;27.23;41.04
71299;BME280;59083;47.974;21.722;2023-06-19T14:11:05;100248.84;;;27.08;41.39
71299;BME280;59083;47.974;21.722;2023-06-19T14:14:06;100231.72;;;27.03;42.73
71299;BME280;59083;47.974;21.722;2023-06-19T14:17:07;100250.44;;;26.96;42.49
71299;BME280;59083;47.974;21.722;2023-06-19T14:20:11;100235.22;;;26.90;41.86
71299;BME280;59083;47.974;21.722;2023-06-19T14:23:12;100232.69;;;26.74;42.13
71299;BME280;59083;47.974;21.722;2023-06-19T14:26:13;100230.63;;;26.66;42.17
71299;BME280;59083;47.974;21.722;2023-06-19T14:29:15;100244.81;;;26.68;42.39
71299;BME280;59083;47.974;21.722;2023-06-19T14:32:19;100241.47;;;26.71;41.86
71299;BME280;59083;47.974;21.722;2023-06-19T14:35:20;100243.84;;;26.78;41.82
71299;BME280;59083;47.974;21.722;2023-06-19T14:38:21;100241.56;;;26.66;41.63
71299;BME280;59083;47.974;21.722;2023-06-19T14:41:23;100235.06;;;26.62;41.81
71299;BME280;59083;47.974;21.722;2023-06-19T14:44:24;100239.00;;;26.56;42.45
71299;BME280;59083;47.974;21.722;2023-06-19T14:47:25;100232.34;;;26.62;42.29
71299;BME280;59083;47.974;21.722;2023-06-19T14:50:26;100234.06;;;26.58;42.03
71299;BME280;59083;47.974;21.722;2023-06-19T14:53:27;100224.75;;;26.59;42.23
71299;BME280;59083;47.974;21.722;2023-06-19T14:56:28;100224.13;;;26.62;41.88
71299;BME280;59083;47.974;21.722;2023-06-19T14:59:30;100225.78;;;26.63;41.91
71299;BME280;59083;47.974;21.722;2023-06-19T15:02:31;100221.94;;;26.64;41.83
71299;BME280;59083;47.974;21.722;2023-06-19T15:05:33;100213.56;;;26.56;42.04
71299;BME280;59083;47.974;21.722;2023-06-19T15:08:34;100216.75;;;26.44;41.84
71299;BME280;59083;47.974;21.722;2023-06-19T15:11:39;100217.13;;;26.38;42.52
71299;BME280;59083;47.974;21.722;2023-06-19T15:14:40;100216.41;;;26.32;42.75
71299;BME280;59083;47.974;21.722;2023-06-19T15:17:42;100230.22;;;26.41;42.70
71299;BME280;59083;47.974;21.722;2023-06-19T15:20:43;100226.38;;;26.42;43.15
71299;BME280;59083;47.974;21.722;2023-06-19T15:23:44;100228.31;;;26.41;42.97
71299;BME280;59083;47.974;21.722;2023-06-19T15:26:45;100231.13;;;26.36;43.96
71299;BME280;59083;47.974;21.722;2023-06-19T15:29:47;100232.12;;;26.40;43.21
71299;BME280;59083;47.974;21.722;2023-06-19T15:32:48;100229.09;;;26.23;43.51
71299;BME280;59083;47.974;21.722;2023-06-19T15:35:49;100226.69;;;26.16;43.73
71299;BME280;59083;47.974;21.722;2023-06-19T15:38:50;100223.00;;;26.07;43.85